﻿<?xml version="1.0" encoding="utf-8"?><gpx creator="Garmin Desktop App" version="1.1" xsi:schemaLocation="http://www.topografix.com/GPX/1/1 http://www.topografix.com/GPX/1/1/gpx.xsd http://www.garmin.com/xmlschemas/WaypointExtension/v1 http://www8.garmin.com/xmlschemas/WaypointExtensionv1.xsd http://www.garmin.com/xmlschemas/TrackPointExtension/v1 http://www.garmin.com/xmlschemas/TrackPointExtensionv1.xsd http://www.garmin.com/xmlschemas/GpxExtensions/v3 http://www8.garmin.com/xmlschemas/GpxExtensionsv3.xsd http://www.garmin.com/xmlschemas/ActivityExtension/v1 http://www8.garmin.com/xmlschemas/ActivityExtensionv1.xsd http://www.garmin.com/xmlschemas/AdventuresExtensions/v1 http://www8.garmin.com/xmlschemas/AdventuresExtensionv1.xsd http://www.garmin.com/xmlschemas/PressureExtension/v1 http://www.garmin.com/xmlschemas/PressureExtensionv1.xsd http://www.garmin.com/xmlschemas/TripExtensions/v1 http://www.garmin.com/xmlschemas/TripExtensionsv1.xsd http://www.garmin.com/xmlschemas/TripMetaDataExtensions/v1 http://www.garmin.com/xmlschemas/TripMetaDataExtensionsv1.xsd http://www.garmin.com/xmlschemas/ViaPointTransportationModeExtensions/v1 http://www.garmin.com/xmlschemas/ViaPointTransportationModeExtensionsv1.xsd http://www.garmin.com/xmlschemas/CreationTimeExtension/v1 http://www.garmin.com/xmlschemas/CreationTimeExtensionsv1.xsd http://www.garmin.com/xmlschemas/AccelerationExtension/v1 http://www.garmin.com/xmlschemas/AccelerationExtensionv1.xsd http://www.garmin.com/xmlschemas/PowerExtension/v1 http://www.garmin.com/xmlschemas/PowerExtensionv1.xsd http://www.garmin.com/xmlschemas/VideoExtension/v1 http://www.garmin.com/xmlschemas/VideoExtensionv1.xsd" xmlns="http://www.topografix.com/GPX/1/1" xmlns:xsi="http://www.w3.org/2001/XMLSchema-instance" xmlns:wptx1="http://www.garmin.com/xmlschemas/WaypointExtension/v1" xmlns:gpxtrx="http://www.garmin.com/xmlschemas/GpxExtensions/v3" xmlns:gpxtpx="http://www.garmin.com/xmlschemas/TrackPointExtension/v1" xmlns:gpxx="http://www.garmin.com/xmlschemas/GpxExtensions/v3" xmlns:trp="http://www.garmin.com/xmlschemas/TripExtensions/v1" xmlns:adv="http://www.garmin.com/xmlschemas/AdventuresExtensions/v1" xmlns:prs="http://www.garmin.com/xmlschemas/PressureExtension/v1" xmlns:tmd="http://www.garmin.com/xmlschemas/TripMetaDataExtensions/v1" xmlns:vptm="http://www.garmin.com/xmlschemas/ViaPointTransportationModeExtensions/v1" xmlns:ctx="http://www.garmin.com/xmlschemas/CreationTimeExtension/v1" xmlns:gpxacc="http://www.garmin.com/xmlschemas/AccelerationExtension/v1" xmlns:gpxpx="http://www.garmin.com/xmlschemas/PowerExtension/v1" xmlns:vidx1="http://www.garmin.com/xmlschemas/VideoExtension/v1">

  <metadata>
    <link href="http://www.garmin.com">
      <text>Garmin International</text>
    </link>
    <time>2023-01-25T20:11:18Z</time>
    <bounds maxlat="50.969283990561962" maxlon="4.594851024448872" minlat="50.935818990692496" minlon="4.526851996779442" />
  </metadata>

  <trk>
    <name>Kampenhout ri vaart 20 km</name>
    <extensions>
      <gpxx:TrackExtension>
        <gpxx:DisplayColor>Magenta</gpxx:DisplayColor>
      </gpxx:TrackExtension>
    </extensions>
    <trkseg>
      <trkpt lat="50.949197011068463" lon="4.53030701726675">
        <ele>10.231999999999999</ele>
        <time>2021-03-17T21:12:40Z</time>
      </trkpt>
      <trkpt lat="50.949217965826392" lon="4.530697027221322">
        <ele>12.492000000000001</ele>
        <time>2021-03-17T21:13:00Z</time>
      </trkpt>
      <trkpt lat="50.948581025004387" lon="4.529709974303842">
        <ele>9.211</ele>
        <time>2021-03-17T21:13:20Z</time>
      </trkpt>
      <trkpt lat="50.947782984003425" lon="4.528466016054153">
        <ele>10.907999999999999</ele>
        <time>2021-03-17T21:13:40Z</time>
      </trkpt>
      <trkpt lat="50.946258986368775" lon="4.526851996779442">
        <ele>9.086</ele>
        <time>2021-03-17T21:14:00Z</time>
      </trkpt>
      <trkpt lat="50.945233041420579" lon="4.52787802554667">
        <ele>10.881</ele>
        <time>2021-03-17T21:14:20Z</time>
      </trkpt>
      <trkpt lat="50.944624012336135" lon="4.528993992134929">
        <ele>10.427</ele>
        <time>2021-03-17T21:14:40Z</time>
      </trkpt>
      <trkpt lat="50.944137023761868" lon="4.530602982267737">
        <ele>11.196999999999999</ele>
        <time>2021-03-17T21:15:00Z</time>
      </trkpt>
      <trkpt lat="50.942863980308175" lon="4.533018982037902">
        <ele>12.65</ele>
        <time>2021-03-17T21:15:20Z</time>
      </trkpt>
      <trkpt lat="50.942269032821059" lon="4.533533966168761">
        <ele>11.061</ele>
        <time>2021-03-17T21:15:40Z</time>
      </trkpt>
      <trkpt lat="50.941603006795049" lon="4.533906960859895">
        <ele>10.843999999999999</ele>
        <time>2021-03-17T21:16:00Z</time>
      </trkpt>
      <trkpt lat="50.941332019865513" lon="4.531890023499727">
        <ele>12.823</ele>
        <time>2021-03-17T21:16:20Z</time>
      </trkpt>
      <trkpt lat="50.941048040986061" lon="4.531439999118447">
        <ele>11.829000000000001</ele>
        <time>2021-03-17T21:16:40Z</time>
      </trkpt>
      <trkpt lat="50.940085966140032" lon="4.532191017642617">
        <ele>11</ele>
        <time>2021-03-17T21:17:00Z</time>
      </trkpt>
      <trkpt lat="50.939274011179805" lon="4.532876992598176">
        <ele>10.619999999999999</ele>
        <time>2021-03-17T21:17:20Z</time>
      </trkpt>
      <trkpt lat="50.937839029356837" lon="4.535087971016765">
        <ele>12.007999999999999</ele>
        <time>2021-03-17T21:17:40Z</time>
      </trkpt>
      <trkpt lat="50.936265997588634" lon="4.537013964727521">
        <ele>13.484999999999999</ele>
        <time>2021-03-17T21:18:00Z</time>
      </trkpt>
      <trkpt lat="50.935818990692496" lon="4.537529032677412">
        <ele>14.880000000000001</ele>
        <time>2021-03-17T21:18:20Z</time>
      </trkpt>
      <trkpt lat="50.93621201813221" lon="4.538173014298081">
        <ele>13.875999999999999</ele>
        <time>2021-03-17T21:18:40Z</time>
      </trkpt>
      <trkpt lat="50.937443990260363" lon="4.54070501960814">
        <ele>14.016</ele>
        <time>2021-03-17T21:19:00Z</time>
      </trkpt>
      <trkpt lat="50.93887897208333" lon="4.543172987177968">
        <ele>11.659000000000001</ele>
        <time>2021-03-17T21:19:20Z</time>
      </trkpt>
      <trkpt lat="50.939501998946071" lon="4.544768985360861">
        <ele>11.289999999999999</ele>
        <time>2021-03-17T21:19:40Z</time>
      </trkpt>
      <trkpt lat="50.940646966919303" lon="4.545129993930459">
        <ele>13.013</ele>
        <time>2021-03-17T21:20:00Z</time>
      </trkpt>
      <trkpt lat="50.940484022721648" lon="4.54392802901566">
        <ele>13.372</ele>
        <time>2021-03-17T21:20:20Z</time>
      </trkpt>
      <trkpt lat="50.941038988530636" lon="4.54364899545908">
        <ele>12.291</ele>
        <time>2021-03-17T21:20:40Z</time>
      </trkpt>
      <trkpt lat="50.94087696634233" lon="4.54298397526145">
        <ele>13.981</ele>
        <time>2021-03-17T21:21:00Z</time>
      </trkpt>
      <trkpt lat="50.942556029185653" lon="4.541697017848492">
        <ele>12.218999999999999</ele>
        <time>2021-03-17T21:21:20Z</time>
      </trkpt>
      <trkpt lat="50.9419060125947" lon="4.539443040266633">
        <ele>13.007999999999999</ele>
        <time>2021-03-17T21:21:40Z</time>
      </trkpt>
      <trkpt lat="50.943177966400981" lon="4.538370994850993">
        <ele>10.672000000000001</ele>
        <time>2021-03-17T21:22:00Z</time>
      </trkpt>
      <trkpt lat="50.945233041420579" lon="4.537251004949212">
        <ele>7.257</ele>
        <time>2021-03-17T21:22:20Z</time>
      </trkpt>
      <trkpt lat="50.947032971307635" lon="4.535550987347961">
        <ele>10.023</ele>
        <time>2021-03-17T21:22:40Z</time>
      </trkpt>
      <trkpt lat="50.948748998343945" lon="4.537631962448359">
        <ele>9.343</ele>
        <time>2021-03-17T21:23:00Z</time>
      </trkpt>
      <trkpt lat="50.949032977223396" lon="4.537910996004939">
        <ele>9.045999999999999</ele>
        <time>2021-03-17T21:23:20Z</time>
      </trkpt>
      <trkpt lat="50.949499011039734" lon="4.538791012018919">
        <ele>9.367000000000001</ele>
        <time>2021-03-17T21:23:40Z</time>
      </trkpt>
      <trkpt lat="50.950297974050045" lon="4.540593959391117">
        <ele>9.94</ele>
        <time>2021-03-17T21:24:00Z</time>
      </trkpt>
      <trkpt lat="50.95009496435523" lon="4.541215980425477">
        <ele>10.319000000000001</ele>
        <time>2021-03-17T21:24:20Z</time>
      </trkpt>
      <trkpt lat="50.949187958613038" lon="4.542160034179688">
        <ele>10.929</ele>
        <time>2021-03-17T21:24:40Z</time>
      </trkpt>
      <trkpt lat="50.949288038536906" lon="4.543250016868115">
        <ele>10.199999999999999</ele>
        <time>2021-03-17T21:25:00Z</time>
      </trkpt>
      <trkpt lat="50.94953203573823" lon="4.544945005327463">
        <ele>9.02</ele>
        <time>2021-03-17T21:25:20Z</time>
      </trkpt>
      <trkpt lat="50.949572017416358" lon="4.545888975262642">
        <ele>10.608000000000001</ele>
        <time>2021-03-17T21:25:40Z</time>
      </trkpt>
      <trkpt lat="50.95011399127543" lon="4.546748036518693">
        <ele>10.015000000000001</ele>
        <time>2021-03-17T21:26:00Z</time>
      </trkpt>
      <trkpt lat="50.950276013463736" lon="4.547091023996472">
        <ele>10.09</ele>
        <time>2021-03-17T21:26:20Z</time>
      </trkpt>
      <trkpt lat="50.951033988967538" lon="4.547862997278571">
        <ele>10.016</ele>
        <time>2021-03-17T21:26:40Z</time>
      </trkpt>
      <trkpt lat="50.952770970761776" lon="4.547957964241505">
        <ele>10.086</ele>
        <time>2021-03-17T21:27:00Z</time>
      </trkpt>
      <trkpt lat="50.952652031555772" lon="4.549875995144248">
        <ele>10.589</ele>
        <time>2021-03-17T21:27:20Z</time>
      </trkpt>
      <trkpt lat="50.952463019639254" lon="4.552065012976527">
        <ele>11.140000000000001</ele>
        <time>2021-03-17T21:27:40Z</time>
      </trkpt>
      <trkpt lat="50.952246012166142" lon="4.552945028990507">
        <ele>12.753</ele>
        <time>2021-03-17T21:28:00Z</time>
      </trkpt>
      <trkpt lat="50.951921967789531" lon="4.553180979564786">
        <ele>12.662000000000001</ele>
        <time>2021-03-17T21:28:20Z</time>
      </trkpt>
      <trkpt lat="50.951691968366504" lon="4.553308971226215">
        <ele>10.384</ele>
        <time>2021-03-17T21:28:40Z</time>
      </trkpt>
      <trkpt lat="50.952782034873962" lon="4.555846005678177">
        <ele>20.907</ele>
        <time>2021-03-17T21:29:00Z</time>
      </trkpt>
      <trkpt lat="50.953770009800792" lon="4.559063985943794">
        <ele>8.417</ele>
        <time>2021-03-17T21:29:20Z</time>
      </trkpt>
      <trkpt lat="50.954283988103271" lon="4.560329988598824">
        <ele>9.507999999999999</ele>
        <time>2021-03-17T21:29:40Z</time>
      </trkpt>
      <trkpt lat="50.954121965914965" lon="4.560609022155404">
        <ele>9.861000000000001</ele>
        <time>2021-03-17T21:30:00Z</time>
      </trkpt>
      <trkpt lat="50.95483903773129" lon="4.561188966035843">
        <ele>10.036</ele>
        <time>2021-03-17T21:30:20Z</time>
      </trkpt>
      <trkpt lat="50.954486997798085" lon="4.562305016443133">
        <ele>10.231999999999999</ele>
        <time>2021-03-17T21:30:40Z</time>
      </trkpt>
      <trkpt lat="50.954460008069873" lon="4.565008012577891">
        <ele>9.092000000000001</ele>
        <time>2021-03-17T21:31:00Z</time>
      </trkpt>
      <trkpt lat="50.953729022294283" lon="4.56642396748066">
        <ele>8.154999999999999</ele>
        <time>2021-03-17T21:31:20Z</time>
      </trkpt>
      <trkpt lat="50.954000009223819" lon="4.567197030410171">
        <ele>9.586</ele>
        <time>2021-03-17T21:31:40Z</time>
      </trkpt>
      <trkpt lat="50.955380005761981" lon="4.569772034883499">
        <ele>10.249000000000001</ele>
        <time>2021-03-17T21:32:00Z</time>
      </trkpt>
      <trkpt lat="50.955460974946618" lon="4.570373017340899">
        <ele>12.068</ele>
        <time>2021-03-17T21:32:20Z</time>
      </trkpt>
      <trkpt lat="50.955027965828776" lon="4.572098013013601">
        <ele>9.935000000000001</ele>
        <time>2021-03-17T21:32:40Z</time>
      </trkpt>
      <trkpt lat="50.955190993845463" lon="4.572655996307731">
        <ele>8.986000000000001</ele>
        <time>2021-03-17T21:33:00Z</time>
      </trkpt>
      <trkpt lat="50.954351965337992" lon="4.573814040049911">
        <ele>10.013999999999999</ele>
        <time>2021-03-17T21:33:20Z</time>
      </trkpt>
      <trkpt lat="50.953674959018826" lon="4.57441502250731">
        <ele>10.208</ele>
        <time>2021-03-17T21:33:40Z</time>
      </trkpt>
      <trkpt lat="50.952489003539085" lon="4.572483999654651">
        <ele>10.186</ele>
        <time>2021-03-17T21:34:00Z</time>
      </trkpt>
      <trkpt lat="50.951569005846977" lon="4.571110960096121">
        <ele>13.771000000000001</ele>
        <time>2021-03-17T21:34:20Z</time>
      </trkpt>
      <trkpt lat="50.950595028698444" lon="4.570337980985642">
        <ele>13.446999999999999</ele>
        <time>2021-03-17T21:34:40Z</time>
      </trkpt>
      <trkpt lat="50.950162019580603" lon="4.568493040278554">
        <ele>9.097</ele>
        <time>2021-03-17T21:35:00Z</time>
      </trkpt>
      <trkpt lat="50.949403960257769" lon="4.566905004903674">
        <ele>9.08</ele>
        <time>2021-03-17T21:35:20Z</time>
      </trkpt>
      <trkpt lat="50.949052004143596" lon="4.565746039152145">
        <ele>9.061</ele>
        <time>2021-03-17T21:35:40Z</time>
      </trkpt>
      <trkpt lat="50.947861019521952" lon="4.567848974838853">
        <ele>10.183999999999999</ele>
        <time>2021-03-17T21:36:00Z</time>
      </trkpt>
      <trkpt lat="50.947157023474574" lon="4.569523008540273">
        <ele>10.053000000000001</ele>
        <time>2021-03-17T21:36:20Z</time>
      </trkpt>
      <trkpt lat="50.945804016664624" lon="4.570080991834402">
        <ele>12.632</ele>
        <time>2021-03-17T21:36:40Z</time>
      </trkpt>
      <trkpt lat="50.94545197673142" lon="4.570337980985642">
        <ele>12.391999999999999</ele>
        <time>2021-03-17T21:37:00Z</time>
      </trkpt>
      <trkpt lat="50.945560019463301" lon="4.57321397960186">
        <ele>12.510999999999999</ele>
        <time>2021-03-17T21:37:20Z</time>
      </trkpt>
      <trkpt lat="50.945424987003207" lon="4.576431959867477">
        <ele>13.108000000000001</ele>
        <time>2021-03-17T21:37:40Z</time>
      </trkpt>
      <trkpt lat="50.945046041160822" lon="4.578148992732167">
        <ele>13.896000000000001</ele>
        <time>2021-03-17T21:38:00Z</time>
      </trkpt>
      <trkpt lat="50.94566797837615" lon="4.578834967687726">
        <ele>11.680999999999999</ele>
        <time>2021-03-17T21:38:20Z</time>
      </trkpt>
      <trkpt lat="50.946291005238891" lon="4.580380003899336">
        <ele>9.686999999999999</ele>
        <time>2021-03-17T21:38:40Z</time>
      </trkpt>
      <trkpt lat="50.946886036545038" lon="4.582312032580376">
        <ele>12.537000000000001</ele>
        <time>2021-03-17T21:39:00Z</time>
      </trkpt>
      <trkpt lat="50.946700964123011" lon="4.582414962351322">
        <ele>13.69</ele>
        <time>2021-03-17T21:39:20Z</time>
      </trkpt>
      <trkpt lat="50.946700964123011" lon="4.582844031974673">
        <ele>16.140999999999998</ele>
        <time>2021-03-17T21:39:40Z</time>
      </trkpt>
      <trkpt lat="50.946796014904976" lon="4.584216987714171">
        <ele>19.684000000000001</ele>
        <time>2021-03-17T21:40:00Z</time>
      </trkpt>
      <trkpt lat="50.946987960487604" lon="4.586052037775517">
        <ele>19.742999999999999</ele>
        <time>2021-03-17T21:40:20Z</time>
      </trkpt>
      <trkpt lat="50.947335977107286" lon="4.588113985955715">
        <ele>11.055</ele>
        <time>2021-03-17T21:40:40Z</time>
      </trkpt>
      <trkpt lat="50.947273029014468" lon="4.589273035526276">
        <ele>10.807</ele>
        <time>2021-03-17T21:41:00Z</time>
      </trkpt>
      <trkpt lat="50.948707005009055" lon="4.590217005461454">
        <ele>12.117000000000001</ele>
        <time>2021-03-17T21:41:20Z</time>
      </trkpt>
      <trkpt lat="50.948897022753954" lon="4.590645991265774">
        <ele>14.007999999999999</ele>
        <time>2021-03-17T21:41:40Z</time>
      </trkpt>
      <trkpt lat="50.949031971395016" lon="4.592405017465353">
        <ele>10.238</ele>
        <time>2021-03-17T21:42:00Z</time>
      </trkpt>
      <trkpt lat="50.948924012482166" lon="4.593048999086022">
        <ele>9.113</ele>
        <time>2021-03-17T21:42:20Z</time>
      </trkpt>
      <trkpt lat="50.949357021600008" lon="4.594851024448872">
        <ele>10.589</ele>
        <time>2021-03-17T21:42:40Z</time>
      </trkpt>
      <trkpt lat="50.950765013694763" lon="4.594680033624172">
        <ele>11.138999999999999</ele>
        <time>2021-03-17T21:43:00Z</time>
      </trkpt>
      <trkpt lat="50.952631998807192" lon="4.594465037807822">
        <ele>10.571999999999999</ele>
        <time>2021-03-17T21:43:20Z</time>
      </trkpt>
      <trkpt lat="50.953091997653246" lon="4.592792009934783">
        <ele>10.093</ele>
        <time>2021-03-17T21:43:40Z</time>
      </trkpt>
      <trkpt lat="50.953931026160717" lon="4.592277025803924">
        <ele>12.156000000000001</ele>
        <time>2021-03-17T21:44:00Z</time>
      </trkpt>
      <trkpt lat="50.954446010291576" lon="4.593863971531391">
        <ele>11.045</ele>
        <time>2021-03-17T21:44:20Z</time>
      </trkpt>
      <trkpt lat="50.955095021054149" lon="4.593306994065642">
        <ele>10.085000000000001</ele>
        <time>2021-03-17T21:44:40Z</time>
      </trkpt>
      <trkpt lat="50.955419987440109" lon="4.592534014955163">
        <ele>10.689</ele>
        <time>2021-03-17T21:45:00Z</time>
      </trkpt>
      <trkpt lat="50.954769970849156" lon="4.590816982090473">
        <ele>13.717000000000001</ele>
        <time>2021-03-17T21:45:20Z</time>
      </trkpt>
      <trkpt lat="50.955419987440109" lon="4.589187037199736">
        <ele>13.608000000000001</ele>
        <time>2021-03-17T21:45:40Z</time>
      </trkpt>
      <trkpt lat="50.956853963434696" lon="4.586688978597522">
        <ele>15.281000000000001</ele>
        <time>2021-03-17T21:46:00Z</time>
      </trkpt>
      <trkpt lat="50.958179980516434" lon="4.584672041237354">
        <ele>17.725999999999999</ele>
        <time>2021-03-17T21:46:20Z</time>
      </trkpt>
      <trkpt lat="50.95902998931706" lon="4.583238987252116">
        <ele>18.762</ele>
        <time>2021-03-17T21:46:40Z</time>
      </trkpt>
      <trkpt lat="50.958475023508072" lon="4.581135967746377">
        <ele>21.141999999999999</ele>
        <time>2021-03-17T21:47:00Z</time>
      </trkpt>
      <trkpt lat="50.958083001896739" lon="4.580405987799168">
        <ele>19.524999999999999</ele>
        <time>2021-03-17T21:47:20Z</time>
      </trkpt>
      <trkpt lat="50.957772033289075" lon="4.579247022047639">
        <ele>18.015999999999998</ele>
        <time>2021-03-17T21:47:40Z</time>
      </trkpt>
      <trkpt lat="50.958733018487692" lon="4.578689960762858">
        <ele>16.759</ele>
        <time>2021-03-17T21:48:00Z</time>
      </trkpt>
      <trkpt lat="50.959300976246595" lon="4.57701601088047">
        <ele>14.048</ele>
        <time>2021-03-17T21:48:20Z</time>
      </trkpt>
      <trkpt lat="50.960131958127022" lon="4.576733037829399">
        <ele>11.336</ele>
        <time>2021-03-17T21:48:40Z</time>
      </trkpt>
      <trkpt lat="50.959753012284636" lon="4.575315993279219">
        <ele>9.917</ele>
        <time>2021-03-17T21:49:00Z</time>
      </trkpt>
      <trkpt lat="50.959386974573135" lon="4.574244031682611">
        <ele>9.417999999999999</ele>
        <time>2021-03-17T21:49:20Z</time>
      </trkpt>
      <trkpt lat="50.960615007206798" lon="4.572012014687061">
        <ele>9.208</ele>
        <time>2021-03-17T21:49:40Z</time>
      </trkpt>
      <trkpt lat="50.962185021489859" lon="4.569779997691512">
        <ele>8.366</ele>
        <time>2021-03-17T21:50:00Z</time>
      </trkpt>
      <trkpt lat="50.963699966669083" lon="4.567634984850884">
        <ele>8.571</ele>
        <time>2021-03-17T21:50:20Z</time>
      </trkpt>
      <trkpt lat="50.965290013700724" lon="4.567084964364767">
        <ele>9.057</ele>
        <time>2021-03-17T21:50:40Z</time>
      </trkpt>
      <trkpt lat="50.965723022818565" lon="4.565841006115079">
        <ele>7.497</ele>
        <time>2021-03-17T21:51:00Z</time>
      </trkpt>
      <trkpt lat="50.967443995177746" lon="4.564133025705814">
        <ele>8.220000000000001</ele>
        <time>2021-03-17T21:51:20Z</time>
      </trkpt>
      <trkpt lat="50.968716032803059" lon="4.562458992004395">
        <ele>9.031000000000001</ele>
        <time>2021-03-17T21:51:40Z</time>
      </trkpt>
      <trkpt lat="50.968579994514585" lon="4.560784958302975">
        <ele>8.013999999999999</ele>
        <time>2021-03-17T21:52:00Z</time>
      </trkpt>
      <trkpt lat="50.969283990561962" lon="4.560183975845575">
        <ele>9.423</ele>
        <time>2021-03-17T21:52:20Z</time>
      </trkpt>
      <trkpt lat="50.968146985396743" lon="4.558854019269347">
        <ele>9.958</ele>
        <time>2021-03-17T21:52:40Z</time>
      </trkpt>
      <trkpt lat="50.966686019673944" lon="4.557265983894467">
        <ele>9.151999999999999</ele>
        <time>2021-03-17T21:53:00Z</time>
      </trkpt>
      <trkpt lat="50.966253010556102" lon="4.556965995579958">
        <ele>8.517</ele>
        <time>2021-03-17T21:53:20Z</time>
      </trkpt>
      <trkpt lat="50.966766988858581" lon="4.554647980257869">
        <ele>9.007999999999999</ele>
        <time>2021-03-17T21:53:40Z</time>
      </trkpt>
      <trkpt lat="50.966037008911371" lon="4.55387600697577">
        <ele>7.818</ele>
        <time>2021-03-17T21:54:00Z</time>
      </trkpt>
      <trkpt lat="50.966497007757425" lon="4.55215897411108">
        <ele>7.983</ele>
        <time>2021-03-17T21:54:20Z</time>
      </trkpt>
      <trkpt lat="50.965711958706379" lon="4.551858985796571">
        <ele>9.069000000000001</ele>
        <time>2021-03-17T21:54:40Z</time>
      </trkpt>
      <trkpt lat="50.965711958706379" lon="4.551643989980221">
        <ele>9.099</ele>
        <time>2021-03-17T21:55:00Z</time>
      </trkpt>
      <trkpt lat="50.964331962168217" lon="4.551387000828981">
        <ele>8.032</ele>
        <time>2021-03-17T21:55:20Z</time>
      </trkpt>
      <trkpt lat="50.963642969727516" lon="4.551429999992251">
        <ele>9.993</ele>
        <time>2021-03-17T21:55:40Z</time>
      </trkpt>
      <trkpt lat="50.964292986318469" lon="4.548340011388063">
        <ele>8.086</ele>
        <time>2021-03-17T21:56:00Z</time>
      </trkpt>
      <trkpt lat="50.964725995436311" lon="4.547137962654233">
        <ele>8.085000000000001</ele>
        <time>2021-03-17T21:56:20Z</time>
      </trkpt>
      <trkpt lat="50.964779974892735" lon="4.544219970703125">
        <ele>16.815999999999999</ele>
        <time>2021-03-17T21:56:40Z</time>
      </trkpt>
      <trkpt lat="50.964779974892735" lon="4.541902961209416">
        <ele>18.776</ele>
        <time>2021-03-17T21:57:00Z</time>
      </trkpt>
      <trkpt lat="50.963914040476084" lon="4.540014015510678">
        <ele>12.212999999999999</ele>
        <time>2021-03-17T21:57:20Z</time>
      </trkpt>
      <trkpt lat="50.962127018719912" lon="4.540203027427197">
        <ele>9.308</ele>
        <time>2021-03-17T21:57:40Z</time>
      </trkpt>
      <trkpt lat="50.96169400960207" lon="4.540203027427197">
        <ele>10.644</ele>
        <time>2021-03-17T21:58:00Z</time>
      </trkpt>
      <trkpt lat="50.961747989058495" lon="4.537371033802629">
        <ele>10.089</ele>
        <time>2021-03-17T21:58:20Z</time>
      </trkpt>
      <trkpt lat="50.960123995319009" lon="4.537972016260028">
        <ele>8.035</ele>
        <time>2021-03-17T21:58:40Z</time>
      </trkpt>
      <trkpt lat="50.958446022123098" lon="4.539086977019906">
        <ele>10.015000000000001</ele>
        <time>2021-03-17T21:59:00Z</time>
      </trkpt>
      <trkpt lat="50.957417981699109" lon="4.539687959477305">
        <ele>9.018000000000001</ele>
        <time>2021-03-17T21:59:20Z</time>
      </trkpt>
      <trkpt lat="50.955902030691504" lon="4.539946038275957">
        <ele>9.129</ele>
        <time>2021-03-17T21:59:40Z</time>
      </trkpt>
      <trkpt lat="50.954387001693249" lon="4.540804009884596">
        <ele>10.242000000000001</ele>
        <time>2021-03-17T22:00:00Z</time>
      </trkpt>
      <trkpt lat="50.954007972031832" lon="4.540890008211136">
        <ele>11.590999999999999</ele>
        <time>2021-03-17T22:00:20Z</time>
      </trkpt>
      <trkpt lat="50.953882997855544" lon="4.540541991591454">
        <ele>12.066000000000001</ele>
        <time>2021-03-17T22:00:40Z</time>
      </trkpt>
      <trkpt lat="50.952298985794187" lon="4.541250010952354">
        <ele>10.728999999999999</ele>
        <time>2021-03-17T22:01:00Z</time>
      </trkpt>
      <trkpt lat="50.951865976676345" lon="4.539813017472625">
        <ele>11.920999999999999</ele>
        <time>2021-03-17T22:01:20Z</time>
      </trkpt>
      <trkpt lat="50.950928963720798" lon="4.537165006622672">
        <ele>17.007999999999999</ele>
        <time>2021-03-17T22:01:40Z</time>
      </trkpt>
      <trkpt lat="50.950360000133514" lon="4.534418005496264">
        <ele>9.579000000000001</ele>
        <time>2021-03-17T22:02:00Z</time>
      </trkpt>
      <trkpt lat="50.94916901551187" lon="4.534718999639154">
        <ele>22.094000000000001</ele>
        <time>2021-03-17T22:02:20Z</time>
      </trkpt>
      <trkpt lat="50.949006993323565" lon="4.534718999639154">
        <ele>21.469999999999999</ele>
        <time>2021-03-17T22:02:40Z</time>
      </trkpt>
      <trkpt lat="50.949006993323565" lon="4.532314985990524">
        <ele>19.32</ele>
        <time>2021-03-17T22:03:00Z</time>
      </trkpt>
      <trkpt lat="50.949602024629712" lon="4.531629011034966">
        <ele>17.273</ele>
        <time>2021-03-17T22:03:20Z</time>
      </trkpt>
      <trkpt lat="50.949440002441406" lon="4.531114026904106">
        <ele>15.074</ele>
        <time>2021-03-17T22:03:40Z</time>
      </trkpt>
      <trkpt lat="50.949304969981313" lon="4.530856031924486">
        <ele>13.266999999999999</ele>
        <time>2021-03-17T22:04:00Z</time>
      </trkpt>
    </trkseg>
  </trk>

</gpx>